Предлагаем Вашему вниманию английскую версию страницы: AUTOTAF.ME 27607 - aviation weather forecast Nizhnekamsk (Begishevo)

AUTOTAF 27607 - авиапрогноз Нижнекамск (Бегишево)

Сегодня рассвет 02:48 UTC, восход солнца 03:26 UTC,
местный полдень 08:15 UTC, заход солнца 13:04 UTC,
наступление темноты 13:42 UTC.

Краткий прогноз 27607 на 9 часов

AUTOTAF.ME 27607 260200Z 2603/2612 31005G11MPS 9999 BKN007    
  FM260600 31010G15MPS 9999 BKN011  
  BECMG 2610/2612 BKN019

Детальный прогноз 27607 на 24 часа

AUTOTAF.ME 27607 260200Z 2603/2703 31005G11MPS 9999 BKN007 TX02/2609Z TNM03/2703Z  
  FM260600 31010G15MPS 9999 BKN011  
  BECMG 2610/2612 BKN019  
  BECMG 2613/2615 BKN012   
  BECMG 2619/2621 35008G13MPS   
  FM270300 34004MPS 9999 BKN007

Подробный табличный прогноз

Время (UTC) miniAUTOTAF на 3 ч WX FZLVL
M AGL
ICE TURB Т
(°С)
Тd
(°С)
f(%) QNH
(гПа)
WIND/T
26.10.2020
00 32005G11MPS 5000 BR BKN010 BR SFC FBL FL20/FL40 -1 -2 87 1010 ...
03 31005G11MPS 9999 BKN007 SFC FBL FL20/FL50 -1 -3 87 1011 ...
06 31010G15MPS 9999 BKN011 30 FBL FL20/FL110 MOD SFC/FL30 1 -2 78 1013 ...
09 33010G15MPS 9999 BKN014 80 MOD FL20/FL30 MOD SFC/FL30 2 -3 69 1014 ...
12 33010G15MPS 9999 BKN019 120 MOD FL20/FL70 MOD SFC/FL40 2 -4 67 1017 ...
15 34009G15MPS 9999 BKN012 SFC MOD FL20/FL40 MOD SFC/FL20 -1 -5 76 1020 ...
18 34009G15MPS 9999 BKN013 SFC FBL FL20/FL30 MOD SFC/FL20 -1 -5 77 1022 ...
21 35008G13MPS 9999 BKN013 SFC FBL FL20/FL30 MOD SFC/FL20 -2 -5 80 1023 ...
27.10.2020
00 33008G13MPS 9999 BKN014 SFC MOD FL10/FL20 MOD SFC/FL20 -2 -5 80 1025 ...
03 34004MPS 9999 BKN007 SFC MOD FL10/FL20 MOD SFC/FL20 -3 -5 82 1027 ...
06 34004MPS 9999 SKC SFC MOD FL10/FL20 MOD SFC/FL20 -1 -5 73 1029 ...
09 34007MPS 9999 SKC 30 MOD SFC/FL20 2 -5 62 1029 ...
12 32003MPS 9999 SKC 120 MOD SFC/FL20 1 -4 67 1031 ...
15 VRB02MPS 9999 FEW210 SFC -1 -5 77 1031 ...
18 VRB02MPS 9999 FEW210 SFC -1 -5 75 1032 ...
21 VRB02MPS 9999 OVC137TCU SFC MOD FL150/FL160 -1 -5 72 1032 ...


Широта 55.6°, долгота 52.1°, высота 190 м абс.
Средняя высота рельефа местности 133 м абс.
Прогнозы обновляются четыре раза в сутки: в 02, 08, 14, 20 ч всемирного времени.


Выбрать прогноз по другой модели Нижнекамск (Бегишево)
Онлайн-сводка гроз по Нижнекамск (Бегишево) (для РФ и ближнего зарубежья)
Карта фактических гроз в окрестностях Нижнекамск (Бегишево)
Динамические прогностические карты (ventusky.com)
Прогностическая карта высоты нижней границы облаков по Нижнекамск (Бегишево) (windy.com)
Выбрать другой город

Прогноз предназначен для личного научно-познавательного использования частными лицами
и не предназначен для принятия важных решений и выполнения реальных полётов воздушных судов

При копировании или ином использовании любых материалов данного сайта ссылка на © meteocenter.asia обязательна.

0.98/1.5